Estación de Nogales

Ultimos registro cada 15 minutos 40
Estación Fecha / Hora Temperatura Humedad Lluvia Velocidad Dirección Radiación Presion
40 Nogales 10-05-2026 09:45 13,4 66,7 0 0 296 434,4 983,4
39 Nogales 10-05-2026 09:30 12,1 77,9 0 0 296 390,6 983,4
38 Nogales 10-05-2026 09:15 10,4 88,5 0 0 288 343,1 983,3
37 Nogales 10-05-2026 09:00 8,5 92,9 0 0 277 295,6 983,3
36 Nogales 10-05-2026 08:45 6,6 94,6 0 0 277 248,1 983,3
35 Nogales 10-05-2026 08:30 4,3 95,9 0 0 277 201,9 983
34 Nogales 10-05-2026 08:15 1,2 96,1 0 0 277 18,1 983
33 Nogales 10-05-2026 08:00 0,5 95,5 0 0 277 13,1 982,8
32 Nogales 10-05-2026 07:45 0,4 96,1 0 0 277 9,4 982,7
31 Nogales 10-05-2026 07:30 -0,1 95,6 0 0 277 4,4 982,8
30 Nogales 10-05-2026 07:15 0,2 95,5 0 0 277 0,6 982,9
29 Nogales 10-05-2026 07:00 0,2 95,4 0 0 277 0,6 982,9
28 Nogales 10-05-2026 06:45 0,5 95,2 0 0 277 0,6 982,7
27 Nogales 10-05-2026 06:30 1 95,6 0 0,3 277 0,6 982,7
26 Nogales 10-05-2026 06:15 0,5 95,1 0 0 277 0,6 982,5
25 Nogales 10-05-2026 06:00 1,1 94,9 0 0 277 0,6 982,4
24 Nogales 10-05-2026 05:45 1,4 95,4 0 0,3 277 0,6 982,4
23 Nogales 10-05-2026 05:30 1,5 94,8 0 0,3 277 0,6 982,4
22 Nogales 10-05-2026 05:15 1,1 95,1 0 0,3 277 0,6 982,3
21 Nogales 10-05-2026 05:00 0,8 94,5 0 0 277 0,6 982,4
20 Nogales 10-05-2026 04:45 1,5 94,2 0 0 277 0,6 982,3
19 Nogales 10-05-2026 04:30 2,1 94,7 0 0 277 0,6 982,6
18 Nogales 10-05-2026 04:15 1,9 94,3 0 0 277 0,6 982,5
17 Nogales 10-05-2026 04:00 1,4 93,9 0 0 277 0,6 982,6
16 Nogales 10-05-2026 03:45 1,8 93,7 0 0 277 0,6 982,6
15 Nogales 10-05-2026 03:30 2 93,7 0 0 277 0,6 982,7
14 Nogales 10-05-2026 03:15 2,1 93,7 0 0 277 0,6 982,8
13 Nogales 10-05-2026 03:00 2,2 93,6 0 0 277 0,6 982,7
12 Nogales 10-05-2026 02:45 2,4 93,5 0 0 277 0,6 982,7
11 Nogales 10-05-2026 02:30 3 93,4 0 0 277 0,6 982,9
10 Nogales 10-05-2026 02:15 3,2 93,1 0 0 277 0,6 982,9
9 Nogales 10-05-2026 02:00 3,1 92,7 0 0 277 0,6 983,1
8 Nogales 10-05-2026 01:45 3,7 92,7 0 0 277 0,6 983,2
7 Nogales 10-05-2026 01:30 4 92,2 0 0,3 277 0,6 983,2
6 Nogales 10-05-2026 01:15 3,5 92 0 0 275 0,6 983,3
5 Nogales 10-05-2026 01:00 3,5 91,4 0 0 275 0,6 983,4
4 Nogales 10-05-2026 00:45 3,7 91,4 0 0 275 0,6 983,4
3 Nogales 10-05-2026 00:30 4 91 0 0 275 0,6 983,5
2 Nogales 10-05-2026 00:15 4,7 90,6 0 0 275 0,6 983,6
1 Nogales 10-05-2026 00:00 4,7 90,6 0 0 275 0,6 983,7